This is the latest recevied weather packets stored in our database for station/object EA1EXV-11. If no packets are shown the sender has not sent any weather packets the latest 10 day(s).
| Time | Temp. | Humidity | Pressure | Rain* | Wind** | Luminosity | Snow |
|---|---|---|---|---|---|---|---|
| 1777839597 | 11.67° C | 70% | 1016 hPa | - | - | - | - |
| 1777838697 | 11.67° C | 69% | 1015.7 hPa | - | - | - | - |
| 1777837797 | 12.22° C | 67% | 1015.6 hPa | - | - | - | - |
| 1777836897 | 12.22° C | 65% | 1015.5 hPa | - | - | - | - |
| 1777835997 | 12.78° C | 63% | 1015.3 hPa | - | - | - | - |
| 1777835097 | 13.33° C | 60% | 1015.1 hPa | - | - | - | - |
| 1777834197 | 14.44° C | 58% | 1015.1 hPa | - | - | - | - |
| 1777833296 | 17.22° C | 54% | 1015.2 hPa | - | - | - | - |
| 1777832396 | 20° C | 54% | 1015.1 hPa | - | - | - | - |
| 1777831496 | 19.44° C | 55% | 1015 hPa | - | - | - | - |
| 1777830596 | 17.22° C | 57% | 1015.1 hPa | - | - | - | - |
| 1777829696 | 17.22° C | 56% | 1014.8 hPa | - | - | - | - |
| 1777828796 | 18.33° C | 55% | 1014.8 hPa | - | - | - | - |
| 1777827896 | 22.22° C | 54% | 1014.9 hPa | - | - | - | - |
| 1777826996 | 18.33° C | 58% | 1014.8 hPa | - | - | - | - |
| 1777826096 | 18.33° C | 58% | 1014.7 hPa | - | - | - | - |
| 1777825196 | 17.78° C | 57% | 1014.7 hPa | - | - | - | - |
| 1777824296 | 21.11° C | 56% | 1014.7 hPa | - | - | - | - |
| 1777823395 | 18.33° C | 60% | 1014.6 hPa | - | - | - | - |
| 1777822495 | 18.33° C | 60% | 1014.7 hPa | - | - | - | - |
| 1777821595 | 19.44° C | 60% | 1014.7 hPa | - | - | - | - |
| 1777820695 | 18.33° C | 63% | 1014.7 hPa | - | - | - | - |
| 1777819795 | 17.78° C | 64% | 1014.8 hPa | - | - | - | - |
| 1777818895 | 19.44° C | 64% | 1014.7 hPa | - | - | - | - |
| 1777817995 | 20° C | 67% | 1014.7 hPa | - | - | - | - |
* Rain since midnight (hover to see other rain measurements)
** Current wind speed in m/s (hover to see current wind gust speed)